createdAt,value
2023-05-04T00:00:20.725Z,3.80
2023-05-04T00:02:47.759Z,3.40
2023-05-04T00:05:14.757Z,4.45
2023-05-04T00:07:41.780Z,2.53
2023-05-04T00:10:09.537Z,2.45
2023-05-04T00:12:36.836Z,3.10
2023-05-04T00:15:05.156Z,5.40
2023-05-04T00:17:32.511Z,2.67
2023-05-04T00:19:59.550Z,1.35
2023-05-04T00:22:26.609Z,4.28
2023-05-04T00:24:53.618Z,2.38
2023-05-04T00:27:20.571Z,4.22
2023-05-04T00:29:47.813Z,2.70
2023-05-04T00:32:14.949Z,2.70
2023-05-04T00:34:41.927Z,1.63
2023-05-04T00:37:09.000Z,3.05
2023-05-04T00:39:36.002Z,3.67
2023-05-04T00:42:03.356Z,3.30
2023-05-04T00:44:30.423Z,3.67
2023-05-04T00:46:57.840Z,5.60
2023-05-04T00:49:25.746Z,4.97
2023-05-04T00:51:55.424Z,4.43
2023-05-04T00:54:23.416Z,4.90
2023-05-04T00:56:51.050Z,5.10
2023-05-04T00:59:18.039Z,2.70
2023-05-04T01:01:45.028Z,4.43
2023-05-04T01:04:12.449Z,4.90
2023-05-04T01:07:09.073Z,4.40
2023-05-04T01:09:59.560Z,3.92
2023-05-04T01:12:30.705Z,6.32
2023-05-04T01:15:00.091Z,5.57
2023-05-04T01:17:29.186Z,4.28
2023-05-04T01:19:56.521Z,5.65
2023-05-04T01:22:25.674Z,4.03
2023-05-04T01:24:55.061Z,7.47
2023-05-04T01:27:31.503Z,3.38
2023-05-04T01:30:14.985Z,5.32
2023-05-04T01:32:46.111Z,4.93
2023-05-04T01:35:13.699Z,7.70
2023-05-04T01:37:41.487Z,5.85
2023-05-04T01:40:09.842Z,6.30
2023-05-04T01:42:36.948Z,3.53
2023-05-04T01:45:05.279Z,11.23
2023-05-04T01:47:32.291Z,7.70
2023-05-04T01:49:59.425Z,7.63
2023-05-04T01:52:26.449Z,7.55
2023-05-04T01:54:53.492Z,7.50
2023-05-04T01:57:20.616Z,11.52
2023-05-04T01:59:47.655Z,7.05
2023-05-04T02:02:14.699Z,5.28
2023-05-04T02:04:41.863Z,6.72
2023-05-04T02:07:08.892Z,4.82
2023-05-04T02:09:36.848Z,6.93
2023-05-04T02:12:04.376Z,8.35
2023-05-04T02:14:31.378Z,7.30
2023-05-04T02:16:58.318Z,6.95
2023-05-04T02:19:25.386Z,5.80
2023-05-04T02:21:52.930Z,5.55
2023-05-04T02:24:22.045Z,7.07
2023-05-04T02:26:49.096Z,10.40
2023-05-04T02:29:16.211Z,6.45
2023-05-04T02:31:43.388Z,4.72
2023-05-04T02:34:10.481Z,4.38
2023-05-04T02:36:47.208Z,3.63
2023-05-04T02:39:14.770Z,3.38
2023-05-04T02:41:41.762Z,3.97
2023-05-04T02:44:08.819Z,3.42
2023-05-04T02:46:35.784Z,4.15
2023-05-04T02:49:02.827Z,4.85
2023-05-04T02:51:29.968Z,6.25
2023-05-04T02:53:57.029Z,7.03
2023-05-04T02:56:24.463Z,7.78
2023-05-04T02:58:51.575Z,6.80
2023-05-04T03:01:18.790Z,8.15
2023-05-04T03:03:46.215Z,9.95
2023-05-04T03:06:13.299Z,8.93
2023-05-04T03:08:40.325Z,8.05
2023-05-04T03:11:07.324Z,7.45
2023-05-04T03:13:34.443Z,6.78
2023-05-04T03:16:02.573Z,4.30
2023-05-04T03:21:14.617Z,6.57
2023-05-04T03:23:42.825Z,6.60
2023-05-04T03:26:09.843Z,5.68
2023-05-04T03:28:36.871Z,8.68
2023-05-04T03:31:04.268Z,4.88
2023-05-04T03:33:31.877Z,6.35
2023-05-04T03:35:59.143Z,9.02
2023-05-04T03:38:26.213Z,5.88
2023-05-04T03:40:54.435Z,6.97
2023-05-04T03:43:21.443Z,6.70
2023-05-04T03:45:49.004Z,8.48
2023-05-04T03:48:17.795Z,9.43
2023-05-04T03:50:45.032Z,7.43
2023-05-04T03:53:12.032Z,7.45
2023-05-04T03:55:39.176Z,6.15
2023-05-04T03:58:06.221Z,5.47
2023-05-04T04:00:33.263Z,6.85
2023-05-04T04:03:09.195Z,8.60
2023-05-04T04:05:37.300Z,7.57
2023-05-04T04:08:04.894Z,7.40
2023-05-04T04:10:31.945Z,6.22
2023-05-04T04:12:59.138Z,6.07
2023-05-04T04:15:26.844Z,9.57
2023-05-04T04:17:54.127Z,10.80
2023-05-04T04:20:21.208Z,7.55
2023-05-04T04:22:48.174Z,8.50
2023-05-04T04:25:15.251Z,8.13
2023-05-04T04:27:42.278Z,7.97
2023-05-04T04:30:09.777Z,9.13
2023-05-04T04:32:37.681Z,7.70
2023-05-04T04:35:05.126Z,10.27
2023-05-04T04:37:32.125Z,6.40
2023-05-04T04:39:59.170Z,6.63
2023-05-04T04:42:26.431Z,9.10
2023-05-04T04:44:53.575Z,7.82
2023-05-04T04:47:20.593Z,4.93
2023-05-04T04:49:47.921Z,6.28
2023-05-04T04:52:15.638Z,10.77
2023-05-04T04:54:42.890Z,6.63
2023-05-04T04:57:10.474Z,6.05
2023-05-04T04:59:41.083Z,7.30
2023-05-04T05:02:08.798Z,6.72
2023-05-04T05:04:39.562Z,8.90
2023-05-04T05:07:08.975Z,9.93
2023-05-04T05:09:36.316Z,9.35
2023-05-04T05:12:04.370Z,6.40
2023-05-04T05:14:35.224Z,8.68
2023-05-04T05:17:05.437Z,7.05
2023-05-04T05:19:37.249Z,5.20
2023-05-04T05:22:04.862Z,6.72
2023-05-04T05:24:32.024Z,8.27
2023-05-04T05:26:59.385Z,8.77
2023-05-04T05:29:26.666Z,11.88
2023-05-04T05:31:54.076Z,4.28
2023-05-04T05:34:21.194Z,5.97
2023-05-04T05:36:49.160Z,5.95
2023-05-04T05:39:16.561Z,7.22
2023-05-04T05:41:43.637Z,4.72
2023-05-04T05:44:12.946Z,3.67
2023-05-04T05:46:40.374Z,4.43
2023-05-04T05:49:07.584Z,3.03
2023-05-04T05:51:34.760Z,4.25
2023-05-04T05:54:02.021Z,5.75
2023-05-04T05:56:29.092Z,2.20
2023-05-04T05:58:56.592Z,3.28
2023-05-04T06:01:24.219Z,6.07
2023-05-04T06:03:51.482Z,3.97
2023-05-04T06:06:19.159Z,3.72
2023-05-04T06:08:46.477Z,5.03
2023-05-04T06:11:14.151Z,3.63
2023-05-04T06:13:41.193Z,6.70
2023-05-04T06:16:08.411Z,8.23
2023-05-04T06:18:35.469Z,4.85
2023-05-04T06:21:02.728Z,10.90
2023-05-04T06:23:30.857Z,5.88
2023-05-04T06:25:57.950Z,3.83
2023-05-04T06:28:25.137Z,4.22
2023-05-04T06:30:52.181Z,4.82
2023-05-04T06:33:19.326Z,5.13
2023-05-04T06:35:46.354Z,2.78
2023-05-04T06:38:13.382Z,2.90
2023-05-04T06:40:41.221Z,2.22
2023-05-04T06:43:08.374Z,1.95
2023-05-04T06:45:36.053Z,2.95
2023-05-04T06:48:04.687Z,1.30
2023-05-04T06:50:33.236Z,3.17
2023-05-04T06:53:10.761Z,2.53
2023-05-04T06:55:38.565Z,3.90
2023-05-04T06:58:05.941Z,1.40
2023-05-04T07:00:33.133Z,2.03
2023-05-04T07:03:00.298Z,2.78
2023-05-04T07:05:27.335Z,4.40
2023-05-04T07:07:54.417Z,5.75
2023-05-04T07:10:21.421Z,4.13
2023-05-04T07:12:49.230Z,5.97
2023-05-04T07:15:16.544Z,6.30
2023-05-04T07:17:43.868Z,5.15
2023-05-04T07:20:11.603Z,6.07
2023-05-04T07:22:38.725Z,4.80
2023-05-04T07:25:06.073Z,8.60
2023-05-04T07:27:34.742Z,7.18
2023-05-04T07:30:02.857Z,4.43
2023-05-04T07:32:30.075Z,3.88
2023-05-04T07:34:57.553Z,6.10
2023-05-04T07:37:24.697Z,5.45
2023-05-04T07:39:51.668Z,3.47
2023-05-04T07:42:18.652Z,4.97
2023-05-04T07:44:46.255Z,5.70
2023-05-04T07:47:13.700Z,5.28
2023-05-04T07:49:40.634Z,3.20
2023-05-04T07:52:07.672Z,4.45
2023-05-04T07:54:34.813Z,3.72
2023-05-04T07:57:04.772Z,4.93
2023-05-04T07:59:32.098Z,5.57
2023-05-04T08:01:59.910Z,3.95
2023-05-04T08:04:26.929Z,4.82
2023-05-04T08:06:53.929Z,7.18
2023-05-04T08:09:21.000Z,3.65
2023-05-04T08:11:48.575Z,2.92
2023-05-04T08:14:15.786Z,3.40
2023-05-04T08:16:42.897Z,4.15
2023-05-04T08:19:10.183Z,5.07
2023-05-04T08:21:42.947Z,2.80
2023-05-04T08:24:10.040Z,3.85
2023-05-04T08:26:38.612Z,5.35
2023-05-04T08:29:10.924Z,6.68
2023-05-04T08:31:40.175Z,3.35
2023-05-04T08:34:07.529Z,5.15
2023-05-04T08:36:34.740Z,7.78
2023-05-04T08:39:01.773Z,7.72
2023-05-04T08:41:28.906Z,9.85
2023-05-04T08:43:56.091Z,10.32
2023-05-04T08:46:23.262Z,7.78
2023-05-04T08:48:50.747Z,8.02
2023-05-04T08:51:19.173Z,5.82
2023-05-04T08:53:46.891Z,11.15
2023-05-04T08:56:16.574Z,6.57
2023-05-04T08:58:53.397Z,7.05
2023-05-04T09:01:22.263Z,6.60
2023-05-04T09:03:50.169Z,7.15
2023-05-04T09:06:17.611Z,15.32
2023-05-04T09:08:44.651Z,16.42
2023-05-04T09:11:11.744Z,9.65
2023-05-04T09:13:38.836Z,11.18
2023-05-04T09:16:06.462Z,19.00
2023-05-04T09:18:40.711Z,8.98
2023-05-04T09:21:08.158Z,10.55
2023-05-04T09:23:55.469Z,8.52
2023-05-04T09:26:33.016Z,10.75
2023-05-04T09:29:17.797Z,7.65
2023-05-04T09:31:51.382Z,9.15
2023-05-04T09:34:21.521Z,6.13
2023-05-04T09:37:02.774Z,11.55
2023-05-04T09:39:30.583Z,8.48
2023-05-04T09:41:57.594Z,11.82
2023-05-04T09:44:28.130Z,7.68
2023-05-04T10:17:55.430Z,8.50
2023-05-04T10:20:44.321Z,8.82
2023-05-04T10:23:46.050Z,7.65
2023-05-04T10:26:48.123Z,9.60
2023-05-04T10:29:23.758Z,13.27
2023-05-04T10:31:52.844Z,8.90
2023-05-04T10:34:33.515Z,10.65
2023-05-04T10:37:02.415Z,7.03
2023-05-04T10:39:34.251Z,9.02
2023-05-04T10:42:08.766Z,12.38
2023-05-04T10:44:39.960Z,8.50
2023-05-04T10:47:08.222Z,12.13
2023-05-04T10:49:36.162Z,7.72
2023-05-04T10:52:09.977Z,9.40
2023-05-04T10:54:38.052Z,9.52
2023-05-04T10:57:10.294Z,12.55
2023-05-04T10:59:38.663Z,17.48
2023-05-04T11:02:07.824Z,12.77
2023-05-04T11:04:35.897Z,14.50
2023-05-04T11:07:08.788Z,16.35
2023-05-04T11:09:38.312Z,14.88
2023-05-04T11:12:06.410Z,11.65
2023-05-04T11:14:37.835Z,11.02
2023-05-04T11:17:26.722Z,14.00
2023-05-04T11:19:55.856Z,14.15
2023-05-04T11:22:23.063Z,9.25
2023-05-04T11:24:50.183Z,9.60
2023-05-04T11:27:24.084Z,13.93
2023-05-04T11:29:59.413Z,15.18
2023-05-04T11:32:46.797Z,13.02
2023-05-04T11:35:23.915Z,12.32
2023-05-04T11:37:51.007Z,11.13
2023-05-04T11:40:26.053Z,14.75
2023-05-04T11:42:56.604Z,10.43
2023-05-04T11:45:25.045Z,13.52
2023-05-04T11:47:53.445Z,12.20
2023-05-04T11:50:21.628Z,12.40
2023-05-04T11:52:49.444Z,19.23
2023-05-04T11:55:30.829Z,15.90
2023-05-04T11:58:01.583Z,15.00
2023-05-04T12:00:44.977Z,18.10
2023-05-04T12:03:14.372Z,11.65
2023-05-04T12:05:48.851Z,13.73
2023-05-04T12:08:24.313Z,13.80
2023-05-04T12:10:51.483Z,9.65
2023-05-04T12:13:18.659Z,11.57
2023-05-04T12:15:46.086Z,15.13
2023-05-04T12:18:29.854Z,10.25
2023-05-04T12:20:56.899Z,15.00
2023-05-04T12:23:23.980Z,17.92
2023-05-04T12:25:58.012Z,14.90
2023-05-04T12:28:27.040Z,12.23
2023-05-04T12:30:54.013Z,10.75
2023-05-04T12:33:21.022Z,18.48
2023-05-04T12:35:48.394Z,17.85
2023-05-04T12:38:15.785Z,11.63
2023-05-04T12:40:44.094Z,20.52
2023-05-04T12:43:11.181Z,18.02
2023-05-04T12:45:38.354Z,15.93
2023-05-04T12:48:05.531Z,17.25
2023-05-04T12:50:32.634Z,14.55
2023-05-04T12:52:59.758Z,13.25
2023-05-04T12:55:27.066Z,17.45
2023-05-04T12:57:54.084Z,12.48
2023-05-04T13:00:21.305Z,16.08
2023-05-04T13:02:48.316Z,11.63
2023-05-04T13:05:16.960Z,14.88
2023-05-04T13:07:44.139Z,15.50
2023-05-04T13:10:11.349Z,13.98
2023-05-04T13:12:38.829Z,17.75
2023-05-04T13:15:06.511Z,18.77
2023-05-04T13:17:34.772Z,13.55
2023-05-04T13:20:02.045Z,13.43
2023-05-04T13:22:29.061Z,17.52
2023-05-04T13:24:56.026Z,11.27
2023-05-04T13:27:23.031Z,13.70
2023-05-04T13:29:50.058Z,18.30
2023-05-04T13:32:17.156Z,8.98
2023-05-04T13:34:44.483Z,13.00
2023-05-04T13:37:16.745Z,17.20
2023-05-04T13:39:44.420Z,14.25
2023-05-04T13:42:12.449Z,15.43
2023-05-04T13:44:49.106Z,12.30
2023-05-04T13:47:18.947Z,15.82
2023-05-04T13:49:45.921Z,11.52
2023-05-04T13:52:13.617Z,12.05
2023-05-04T13:54:40.677Z,18.83
2023-05-04T13:57:07.682Z,12.60
2023-05-04T13:59:34.724Z,17.88
2023-05-04T14:02:01.791Z,17.75
2023-05-04T14:04:28.905Z,13.25
2023-05-04T14:06:57.088Z,17.85
2023-05-04T14:09:24.185Z,15.35
2023-05-04T14:11:51.760Z,11.65
2023-05-04T14:14:18.697Z,14.20
2023-05-04T14:16:45.974Z,11.45
2023-05-04T14:19:12.947Z,14.00
2023-05-04T14:21:39.962Z,17.15
2023-05-04T14:24:06.988Z,16.45
2023-05-04T14:26:34.736Z,10.75
2023-05-04T14:29:01.860Z,15.02
2023-05-04T14:31:28.887Z,11.00
2023-05-04T14:33:57.037Z,16.42
2023-05-04T14:36:24.287Z,13.00
2023-05-04T14:38:51.474Z,15.38
2023-05-04T14:41:18.608Z,11.75
2023-05-04T14:43:45.637Z,14.27
2023-05-04T14:46:15.349Z,13.80
2023-05-04T14:48:42.524Z,11.00
2023-05-04T14:51:12.711Z,19.20
2023-05-04T14:53:41.019Z,15.38
2023-05-04T14:56:08.112Z,13.10
2023-05-04T14:58:35.190Z,15.02
2023-05-04T15:01:02.505Z,10.13
2023-05-04T15:03:29.674Z,18.27
2023-05-04T15:05:56.667Z,18.40
2023-05-04T15:08:23.694Z,15.40
2023-05-04T15:10:51.048Z,13.88
2023-05-04T15:13:18.292Z,13.77
2023-05-04T15:15:45.404Z,10.50
2023-05-04T15:18:12.671Z,15.30
2023-05-04T15:20:39.758Z,18.00
2023-05-04T15:23:10.870Z,12.50
2023-05-04T15:25:41.345Z,15.90
2023-05-04T15:28:12.146Z,11.95
2023-05-04T15:30:40.303Z,19.48
2023-05-04T15:33:08.109Z,12.52
2023-05-04T15:35:36.423Z,10.80
2023-05-04T15:38:03.753Z,15.07
2023-05-04T15:40:31.596Z,23.00
2023-05-04T15:42:58.735Z,15.25
2023-05-04T15:45:26.120Z,14.98
2023-05-04T15:47:54.324Z,15.05
2023-05-04T15:50:21.736Z,17.73
2023-05-04T15:52:48.970Z,15.40
2023-05-04T15:55:24.260Z,12.52
2023-05-04T15:57:52.520Z,17.05
2023-05-04T16:00:20.961Z,13.25
2023-05-04T16:02:48.274Z,21.15
2023-05-04T16:05:15.540Z,17.48
2023-05-04T16:07:42.573Z,12.88
2023-05-04T16:10:10.320Z,10.73
2023-05-04T16:12:39.250Z,13.05
2023-05-04T16:15:07.140Z,15.02
2023-05-04T16:17:35.617Z,15.13
2023-05-04T16:20:04.163Z,20.50
2023-05-04T16:22:32.258Z,17.73
2023-05-04T16:25:00.156Z,14.43
2023-05-04T16:27:28.556Z,15.07
2023-05-04T16:29:56.363Z,12.00
2023-05-04T16:32:23.477Z,12.43
2023-05-04T16:34:50.520Z,17.42
2023-05-04T16:37:19.005Z,11.90
2023-05-04T16:39:46.252Z,19.35
2023-05-04T16:42:13.339Z,14.27
2023-05-04T16:44:40.391Z,17.38
2023-05-04T16:47:07.559Z,13.18
2023-05-04T16:49:34.672Z,11.05
2023-05-04T16:52:02.202Z,16.23
2023-05-04T16:54:29.211Z,15.18
2023-05-04T16:56:56.406Z,16.30
2023-05-04T16:59:23.613Z,16.02
2023-05-04T17:01:50.895Z,18.73
2023-05-04T17:04:18.004Z,19.75
2023-05-04T17:06:45.754Z,16.63
2023-05-04T17:09:12.949Z,22.23
2023-05-04T17:11:40.077Z,16.88
2023-05-04T17:14:07.051Z,18.38
2023-05-04T17:16:34.272Z,23.58
2023-05-04T17:19:01.411Z,22.88
2023-05-04T17:21:28.454Z,19.25
2023-05-04T17:23:55.438Z,26.73
2023-05-04T17:26:22.593Z,24.60
2023-05-04T17:28:49.810Z,20.70
2023-05-04T17:31:16.918Z,24.27
2023-05-04T17:33:43.960Z,25.40
2023-05-04T17:36:12.308Z,22.95
2023-05-04T17:38:40.903Z,20.38
2023-05-04T17:41:09.923Z,21.85
2023-05-04T17:43:37.271Z,14.98
2023-05-04T17:46:05.323Z,16.98
2023-05-04T17:48:32.573Z,20.60
2023-05-04T17:50:59.937Z,16.33
2023-05-04T17:53:30.095Z,17.75
2023-05-04T17:55:57.685Z,14.65
2023-05-04T17:58:24.691Z,17.08
2023-05-04T18:00:52.998Z,25.42
2023-05-04T18:03:20.422Z,15.63
2023-05-04T18:05:47.509Z,21.70
2023-05-04T18:08:14.702Z,22.00
2023-05-04T18:10:41.794Z,13.88
2023-05-04T18:13:08.862Z,16.05
2023-05-04T18:15:35.971Z,14.88
2023-05-04T18:18:03.089Z,16.98
2023-05-04T18:20:30.170Z,17.67
2023-05-04T18:22:57.211Z,18.45
2023-05-04T18:25:24.402Z,14.02
2023-05-04T18:27:51.532Z,11.32
2023-05-04T18:30:18.512Z,8.90
2023-05-04T18:32:46.776Z,12.63
2023-05-04T18:35:13.800Z,19.83
2023-05-04T18:37:40.794Z,9.60
2023-05-04T18:40:08.713Z,9.43
2023-05-04T18:42:36.111Z,15.30
2023-05-04T18:45:03.272Z,11.57
2023-05-04T18:47:30.361Z,10.45
2023-05-04T18:49:57.510Z,12.48
2023-05-04T18:52:24.615Z,12.52
2023-05-04T18:54:51.804Z,13.63
2023-05-04T18:57:18.827Z,13.57
2023-05-04T18:59:46.449Z,13.18
2023-05-04T19:02:13.509Z,8.00
2023-05-04T19:04:40.854Z,9.73
2023-05-04T19:07:09.968Z,8.48
2023-05-04T19:09:37.572Z,15.30
2023-05-04T19:12:05.028Z,10.65
2023-05-04T19:14:32.642Z,11.48
2023-05-04T19:17:00.962Z,10.15
2023-05-04T19:19:28.170Z,9.77
2023-05-04T19:21:55.610Z,9.00
2023-05-04T19:24:22.908Z,11.20
2023-05-04T19:26:49.952Z,15.00
2023-05-04T19:29:16.940Z,12.70
2023-05-04T19:31:43.918Z,10.10
2023-05-04T19:34:10.955Z,11.57
2023-05-04T19:36:39.877Z,9.18
2023-05-04T19:39:07.051Z,14.43
2023-05-04T19:41:34.126Z,9.15
2023-05-04T19:44:01.155Z,13.73
2023-05-04T19:46:29.795Z,15.30
2023-05-04T19:48:56.860Z,11.73
2023-05-04T19:51:23.906Z,22.00
2023-05-04T19:53:54.000Z,14.85
2023-05-04T19:56:21.089Z,16.45
2023-05-04T19:58:48.368Z,13.07
2023-05-04T20:01:15.554Z,14.98
2023-05-04T20:03:43.484Z,11.35
2023-05-04T20:06:11.117Z,13.77
2023-05-04T20:08:38.144Z,13.48
2023-05-04T20:11:05.229Z,15.02
2023-05-04T20:13:32.611Z,11.88
2023-05-04T20:15:59.668Z,13.52
2023-05-04T20:18:26.742Z,10.35
2023-05-04T20:20:53.890Z,13.05
2023-05-04T20:23:20.929Z,12.32
2023-05-04T20:25:48.391Z,14.10
2023-05-04T20:28:16.675Z,11.32
2023-05-04T20:30:43.657Z,10.50
2023-05-04T20:33:10.740Z,6.95
2023-05-04T20:35:40.961Z,10.23
2023-05-04T20:38:08.984Z,12.20
2023-05-04T20:40:36.044Z,9.50
2023-05-04T20:43:04.002Z,12.40
2023-05-04T20:45:31.293Z,9.68
2023-05-04T20:47:58.585Z,9.57
2023-05-04T20:50:25.655Z,9.25
2023-05-04T20:52:52.883Z,8.90
2023-05-04T20:55:19.940Z,11.70
2023-05-04T20:57:47.048Z,8.95
2023-05-04T21:00:15.246Z,8.13
2023-05-04T21:02:42.863Z,6.07
2023-05-04T21:05:10.269Z,6.63
2023-05-04T21:07:37.355Z,5.70
2023-05-04T21:10:04.872Z,9.77
2023-05-04T21:12:32.211Z,6.82
2023-05-04T21:14:59.283Z,10.65
2023-05-04T21:17:26.277Z,12.20
2023-05-04T21:19:53.378Z,10.32
2023-05-04T21:22:20.426Z,9.95
2023-05-04T21:24:47.567Z,13.80
2023-05-04T21:27:14.561Z,7.90
2023-05-04T21:29:41.565Z,7.00
2023-05-04T21:32:08.697Z,8.63
2023-05-04T21:34:35.808Z,7.93
2023-05-04T21:37:04.036Z,6.63
2023-05-04T21:39:31.772Z,9.68
2023-05-04T21:41:58.958Z,7.57
2023-05-04T21:44:25.979Z,11.52
2023-05-04T21:46:53.082Z,9.68
2023-05-04T21:49:20.603Z,8.48
2023-05-04T21:51:47.748Z,8.20
2023-05-04T21:54:15.041Z,11.18
2023-05-04T21:56:42.164Z,12.73
2023-05-04T21:59:09.180Z,12.90
2023-05-04T22:01:36.302Z,10.38
2023-05-04T22:04:06.649Z,8.68
2023-05-04T22:06:34.385Z,17.20
2023-05-04T22:09:01.440Z,11.38
2023-05-04T22:11:28.837Z,10.02
2023-05-04T22:13:55.843Z,10.73
2023-05-04T22:16:22.974Z,9.90
2023-05-04T22:18:50.165Z,8.30
2023-05-04T22:21:17.172Z,9.32
2023-05-04T22:23:44.189Z,11.38
2023-05-04T22:26:11.308Z,8.75
2023-05-04T22:28:38.311Z,9.40
2023-05-04T22:31:05.428Z,4.95
2023-05-04T22:33:32.449Z,6.60
2023-05-04T22:35:59.483Z,6.65
2023-05-04T22:38:27.232Z,4.90
2023-05-04T22:40:54.467Z,5.68
2023-05-04T22:43:21.411Z,6.43
2023-05-04T22:45:48.390Z,8.65
2023-05-04T22:48:15.452Z,10.10
2023-05-04T22:50:42.553Z,7.40
2023-05-04T22:53:10.752Z,5.32
2023-05-04T22:55:37.915Z,4.22
2023-05-04T22:58:04.881Z,7.65
2023-05-04T23:00:31.904Z,6.57
2023-05-04T23:02:59.251Z,6.45
2023-05-04T23:05:27.003Z,5.30
2023-05-04T23:07:54.059Z,4.80
2023-05-04T23:10:21.479Z,3.75
2023-05-04T23:12:48.599Z,5.55
2023-05-04T23:15:15.581Z,4.90
2023-05-04T23:17:42.627Z,3.08
2023-05-04T23:20:10.557Z,4.63
2023-05-04T23:22:37.668Z,3.03
2023-05-04T23:25:04.926Z,4.53
2023-05-04T23:27:31.934Z,4.72
2023-05-04T23:29:58.943Z,3.20
2023-05-04T23:32:25.986Z,4.38
2023-05-04T23:34:53.874Z,5.00
2023-05-04T23:37:21.256Z,2.72
2023-05-04T23:39:48.324Z,1.60
2023-05-04T23:42:15.416Z,1.00
2023-05-04T23:44:42.448Z,1.67
2023-05-04T23:47:09.477Z,4.10
2023-05-04T23:49:36.523Z,1.88
2023-05-04T23:52:03.549Z,2.33
2023-05-04T23:54:30.544Z,0.80
2023-05-04T23:56:58.844Z,1.17
2023-05-04T23:59:26.452Z,0.65
